Time;durP1;ratioP1;P1;durP2;ratioP2;P2;SDS_P1;SDS_P2;PMS_P1;PMS_P2;Temp;Humidity;BMP_temperature;BMP_pressure;BME280_temperature;BME280_humidity;BME280_pressure;Samples;Min_cycle;Max_cycle;Signal;HPM_P1;HPM_P2
2022/06/11 00:01:51;;;;;;;3.15;2.08;;;;;;;24.39;46.47;102037.19;4983671;28;20510;-85
2022/06/11 00:04:24;;;;;;;3.47;2.63;;;;;;;24.37;46.56;102041.88;4996658;28;20042;-85
2022/06/11 00:06:53;;;;;;;2.85;2.08;;;;;;;24.37;46.49;102040.03;4988709;28;20052;-84
2022/06/11 00:09:21;;;;;;;2.50;2.30;;;;;;;24.36;46.54;102040.22;4986864;28;20038;-84
2022/06/11 00:11:49;;;;;;;2.50;2.30;;;;;;;24.18;46.42;102015.72;4986736;28;20478;-85
2022/06/11 00:14:15;;;;;;;3.40;2.50;;;;;;;24.38;46.59;102049.69;4990397;28;20068;-90
2022/06/11 00:16:41;;;;;;;4.25;2.22;;;;;;;24.37;46.46;102053.34;4986209;28;20030;-86
2022/06/11 00:19:07;;;;;;;2.63;1.95;;;;;;;24.35;46.42;102057.19;4985995;28;20084;-86
2022/06/11 00:21:36;;;;;;;3.17;2.13;;;;;;;24.35;46.55;102051.88;4985376;28;20433;-87
2022/06/11 00:24:02;;;;;;;4.03;2.20;;;;;;;24.34;46.65;102047.56;4986263;28;20556;-87
2022/06/11 00:26:28;;;;;;;3.03;2.10;;;;;;;24.33;46.46;102052.06;4986202;28;20153;-88
2022/06/11 00:28:53;;;;;;;3.15;1.98;;;;;;;24.32;46.55;102055.72;4972623;28;20208;-86
2022/06/11 00:31:19;;;;;;;3.08;1.98;;;;;;;24.26;46.47;102044.97;4998416;28;20129;-86
2022/06/11 00:33:45;;;;;;;2.80;2.22;;;;;;;24.32;46.48;102049.59;5001918;28;20074;-86
2022/06/11 00:36:12;;;;;;;2.53;2.20;;;;;;;24.32;46.67;102053.06;4985141;28;20043;-87
2022/06/11 00:38:38;;;;;;;2.70;2.40;;;;;;;24.19;46.48;102026.19;4988179;28;20730;-87
2022/06/11 00:41:05;;;;;;;3.35;2.17;;;;;;;24.18;46.61;102027.22;5001066;28;20050;-87
2022/06/11 00:43:31;;;;;;;1.95;1.77;;;;;;;24.28;46.54;102038.44;5001404;28;21762;-87
2022/06/11 00:46:24;;;;;;;4.65;2.33;;;;;;;24.30;46.53;102043.63;4979369;28;20069;-86
2022/06/11 00:48:50;;;;;;;2.95;2.20;;;;;;;24.27;46.58;102047.44;5007257;28;20064;-86
2022/06/11 00:51:20;;;;;;;2.90;2.28;;;;;;;24.22;46.63;102038.31;5004432;28;20053;-86
2022/06/11 00:53:50;;;;;;;2.50;2.00;;;;;;;24.28;46.44;102041.09;5007266;28;20392;-86
2022/06/11 00:56:24;;;;;;;2.13;1.92;;;;;;;24.27;46.42;102038.63;5010453;28;20032;-86
2022/06/11 00:58:51;;;;;;;3.05;2.33;;;;;;;24.13;46.53;102021.59;4995100;28;20065;-85
2022/06/11 01:01:20;;;;;;;2.42;2.00;;;;;;;24.26;46.52;102029.81;4997001;28;20040;-86
2022/06/11 01:03:48;;;;;;;2.60;2.20;;;;;;;24.07;46.36;102001.03;5007282;28;20038;-85
2022/06/11 01:06:34;;;;;;;2.03;1.83;;;;;;;24.13;46.61;102013.63;5007064;28;20033;-87
2022/06/11 01:09:20;;;;;;;3.15;2.30;;;;;;;24.24;46.48;102031.00;5009150;28;20486;-87
2022/06/11 01:12:16;;;;;;;2.50;2.30;;;;;;;24.21;46.54;102029.50;5012432;28;20415;-86
2022/06/11 01:14:49;;;;;;;3.35;2.00;;;;;;;24.06;46.29;102004.72;5011062;28;20038;-88
2022/06/11 01:17:43;;;;;;;3.00;1.98;;;;;;;24.14;46.37;102014.44;4999880;28;20041;-87
2022/06/11 01:20:29;;;;;;;2.17;1.95;;;;;;;24.07;46.32;101993.06;5012415;28;20128;-87
2022/06/11 01:23:26;;;;;;;3.58;2.03;;;;;;;24.17;46.45;102011.41;5007269;28;20100;-87
2022/06/11 01:26:13;;;;;;;2.50;2.10;;;;;;;24.19;46.20;102015.56;5006631;28;20026;-86
2022/06/11 01:28:41;;;;;;;2.13;1.70;;;;;;;24.18;46.35;102016.56;5011280;28;20034;-86
2022/06/11 01:31:32;;;;;;;2.45;2.00;;;;;;;24.19;46.21;102009.41;4994422;28;20057;-86
2022/06/11 01:34:13;;;;;;;4.40;2.40;;;;;;;24.18;46.25;102005.09;5010586;28;20124;-87
2022/06/11 01:36:43;;;;;;;3.72;2.20;;;;;;;24.17;46.37;102006.09;5010286;28;20440;-87
2022/06/11 01:39:22;;;;;;;2.97;2.10;;;;;;;24.16;46.23;102005.28;5008547;28;20089;-87
2022/06/11 01:41:53;;;;;;;2.88;2.38;;;;;;;24.11;46.22;101997.00;5008025;28;20755;-87
2022/06/11 01:44:25;;;;;;;4.85;2.63;;;;;;;24.17;46.23;101998.13;5003420;28;20149;-87
2022/06/11 01:46:53;;;;;;;3.65;2.00;;;;;;;24.15;46.16;101992.16;4993570;28;20324;-87
2022/06/11 01:49:21;;;;;;;3.08;2.20;;;;;;;24.14;46.05;101996.66;5008773;28;21068;-87
2022/06/11 01:52:14;;;;;;;2.80;2.00;;;;;;;24.12;46.17;101993.34;4990609;28;20034;-87
2022/06/11 01:55:02;;;;;;;3.00;2.03;;;;;;;24.12;46.26;101988.00;5007048;28;20049;-86
2022/06/11 01:57:42;;;;;;;2.88;1.83;;;;;;;24.09;46.30;101994.53;5006516;28;20112;-86
2022/06/11 02:00:17;;;;;;;2.22;1.90;;;;;;;24.10;46.05;101988.19;4994533;28;20063;-85
2022/06/11 02:02:58;;;;;;;4.95;2.15;;;;;;;24.11;46.36;101983.69;4992794;28;20084;-86
2022/06/11 02:05:32;;;;;;;3.28;2.20;;;;;;;24.09;46.23;101989.22;5002783;28;20049;-85
2022/06/11 02:08:31;;;;;;;2.92;2.10;;;;;;;24.09;46.21;101988.38;5003709;28;20072;-86
2022/06/11 02:11:02;;;;;;;2.67;2.08;;;;;;;24.09;46.25;101980.41;5009809;28;20511;-86
2022/06/11 02:13:38;;;;;;;2.35;1.83;;;;;;;24.07;46.15;101980.59;5006089;28;20464;-86
2022/06/11 02:16:16;;;;;;;1.90;1.70;;;;;;;23.94;46.16;101964.41;5001644;28;20036;-85
2022/06/11 02:18:46;;;;;;;3.13;2.08;;;;;;;24.06;46.24;101981.59;5005313;28;20117;-86
2022/06/11 02:21:15;;;;;;;2.78;2.10;;;;;;;24.07;46.16;101985.91;5003001;28;20508;-86
2022/06/11 02:23:51;;;;;;;2.90;1.65;;;;;;;24.03;46.33;101973.94;5003526;28;20084;-84
2022/06/11 02:26:27;;;;;;;3.00;2.30;;;;;;;23.94;46.25;101960.91;5001732;28;20111;-85
2022/06/11 02:28:54;;;;;;;3.25;2.30;;;;;;;23.95;46.21;101973.19;4999733;28;20037;-84
2022/06/11 02:31:25;;;;;;;2.05;1.85;;;;;;;24.05;46.02;101987.06;4973229;28;20440;-85
2022/06/11 02:33:51;;;;;;;3.28;2.10;;;;;;;24.03;46.19;101986.41;4991706;28;21076;-84
2022/06/11 02:36:27;;;;;;;4.25;2.08;;;;;;;24.04;46.09;101988.06;5005211;28;20077;-85
2022/06/11 02:38:52;;;;;;;2.10;1.77;;;;;;;23.92;46.18;101969.06;5000593;28;20065;-84
2022/06/11 02:41:24;;;;;;;2.38;2.00;;;;;;;23.86;46.33;101959.13;4998245;28;20109;-85
2022/06/11 02:43:49;;;;;;;4.38;2.00;;;;;;;23.96;46.13;101975.69;4986315;28;20413;-84
2022/06/11 02:49:00;;;;;;;2.50;1.80;;;;;;;23.87;46.16;101973.25;5004159;28;20052;-84
2022/06/11 02:51:28;;;;;;;2.50;1.88;;;;;;;24.01;46.22;101985.78;4998567;28;20042;-85
2022/06/11 02:53:54;;;;;;;3.95;1.90;;;;;;;23.99;46.25;101980.63;5006892;28;20423;-84
2022/06/11 02:56:19;;;;;;;4.03;1.90;;;;;;;23.94;46.15;101984.84;5002277;28;20034;-85
2022/06/11 02:58:45;;;;;;;2.35;1.92;;;;;;;23.99;46.12;101998.44;5001844;28;20128;-84
2022/06/11 03:01:11;;;;;;;2.80;1.88;;;;;;;23.96;46.14;101988.16;4957287;28;20034;-84
2022/06/11 03:03:37;;;;;;;2.50;1.92;;;;;;;23.95;46.17;101989.16;5004337;28;20030;-84
2022/06/11 03:06:03;;;;;;;2.55;1.80;;;;;;;23.93;46.16;101985.84;4999331;28;20060;-84
2022/06/11 03:08:30;;;;;;;3.88;1.95;;;;;;;23.97;46.08;101995.13;5000602;28;20521;-84
2022/06/11 03:10:56;;;;;;;2.90;2.00;;;;;;;23.92;46.10;101982.38;5001232;28;20068;-89
2022/06/11 03:13:24;;;;;;;2.05;1.85;;;;;;;23.77;46.37;101969.03;4983564;28;20041;-84
2022/06/11 03:15:50;;;;;;;3.42;1.58;;;;;;;23.96;46.08;101998.81;4999494;28;20041;-84
2022/06/11 03:18:15;;;;;;;3.83;2.03;;;;;;;23.94;46.19;101998.97;4990849;28;20111;-84
2022/06/11 03:20:41;;;;;;;2.40;1.70;;;;;;;23.96;46.03;102001.47;5000438;28;20060;-85
2022/06/11 03:23:07;;;;;;;3.25;1.67;;;;;;;23.92;46.25;102002.81;4999336;28;20037;-84
2022/06/11 03:25:34;;;;;;;2.83;2.05;;;;;;;23.94;46.10;102006.13;4999886;28;20046;-84
2022/06/11 03:28:09;;;;;;;4.88;2.00;;;;;;;23.89;46.34;101992.56;5004152;28;20049;-85
2022/06/11 03:30:35;;;;;;;3.17;2.10;;;;;;;23.86;46.15;101987.56;5002061;28;20030;-85
2022/06/11 03:33:01;;;;;;;2.35;2.00;;;;;;;23.85;46.12;101986.72;4989978;28;20065;-85
2022/06/11 03:35:26;;;;;;;2.78;1.83;;;;;;;23.86;46.24;101995.53;5000333;28;20087;-85
2022/06/11 03:37:52;;;;;;;2.67;1.75;;;;;;;23.86;46.09;102001.69;4983804;28;20108;-85
2022/06/11 03:40:18;;;;;;;4.22;2.22;;;;;;;23.91;46.24;102009.97;5002355;28;20046;-85
2022/06/11 03:42:43;;;;;;;3.78;1.95;;;;;;;23.66;46.25;101969.44;4999798;28;20628;-84
2022/06/11 03:45:10;;;;;;;4.72;2.28;;;;;;;23.91;46.39;102015.31;5008996;28;20110;-85
2022/06/11 03:47:38;;;;;;;2.53;1.88;;;;;;;23.85;46.18;102010.69;4992848;28;20041;-85
2022/06/11 03:50:11;;;;;;;2.85;2.10;;;;;;;23.78;46.20;101999.94;4996205;28;20282;-85
2022/06/11 03:52:37;;;;;;;3.72;1.80;;;;;;;23.71;46.07;101993.69;5003283;28;20484;-84
2022/06/11 03:55:03;;;;;;;2.75;1.85;;;;;;;23.91;46.17;102027.78;4995747;28;20034;-85
2022/06/11 03:57:28;;;;;;;2.67;2.20;;;;;;;23.91;46.24;102025.13;4999864;28;20982;-85
2022/06/11 03:59:54;;;;;;;3.03;2.10;;;;;;;23.89;46.34;102035.13;4998344;28;20042;-84
2022/06/11 04:02:19;;;;;;;3.25;2.22;;;;;;;23.90;46.63;102040.25;4978253;28;20029;-84
2022/06/11 04:04:45;;;;;;;3.35;2.00;;;;;;;23.89;46.25;102035.13;5001783;28;20038;-85
2022/06/11 04:07:10;;;;;;;3.03;1.67;;;;;;;23.88;46.15;102039.59;4998807;28;20052;-84
2022/06/11 04:09:42;;;;;;;2.58;2.22;;;;;;;23.88;46.33;102036.94;4997094;28;20046;-85
2022/06/11 04:12:11;;;;;;;3.28;2.10;;;;;;;23.87;46.28;102031.78;5002630;28;20840;-84
2022/06/11 04:14:38;;;;;;;1.83;1.70;;;;;;;23.81;46.12;102025.34;4996559;28;20072;-85
2022/06/11 04:17:13;;;;;;;2.97;1.90;;;;;;;23.87;46.20;102021.13;4993943;28;20045;-84
2022/06/11 04:19:41;;;;;;;2.63;2.00;;;;;;;23.87;46.28;102029.94;4997081;28;20038;-85
2022/06/11 04:22:07;;;;;;;4.72;2.25;;;;;;;23.87;46.31;102031.78;5002849;28;20052;-84
2022/06/11 04:24:34;;;;;;;2.75;2.15;;;;;;;23.87;46.17;102031.78;5002540;28;20050;-84
2022/06/11 04:27:02;;;;;;;2.40;2.00;;;;;;;23.86;46.20;102033.59;4984211;28;20084;-85
2022/06/11 04:29:31;;;;;;;3.30;2.20;;;;;;;23.85;46.44;102037.28;4985299;28;20034;-84
2022/06/11 04:31:59;;;;;;;3.10;2.00;;;;;;;23.87;46.26;102035.25;4998974;28;20034;-85
2022/06/11 04:34:27;;;;;;;3.75;2.30;;;;;;;23.77;46.10;102024.88;4989269;28;20477;-85
2022/06/11 04:36:54;;;;;;;4.07;1.83;;;;;;;23.77;46.34;102032.84;5001477;28;20046;-89
2022/06/11 04:39:23;;;;;;;3.08;1.85;;;;;;;23.86;46.30;102043.41;5003477;28;20459;-83
2022/06/11 04:41:49;;;;;;;;;;;;;;;23.88;46.33;102044.06;4983886;28;20511;-83
2022/06/11 04:44:15;;;;;;;3.28;2.20;;;;;;;23.87;46.19;102045.06;5002049;28;19952;-84
2022/06/11 04:46:41;;;;;;;3.35;2.20;;;;;;;23.81;46.33;102042.13;4997687;28;20452;-84
2022/06/11 04:49:08;;;;;;;2.97;2.17;;;;;;;23.84;46.21;102051.56;4974314;28;20037;-85
2022/06/11 04:51:33;;;;;;;2.88;1.95;;;;;;;23.64;46.42;102015.81;4984895;28;21087;-85
2022/06/11 04:53:59;;;;;;;4.70;2.20;;;;;;;23.85;46.35;102057.72;5006641;28;20041;-85
2022/06/11 04:56:28;;;;;;;3.28;1.83;;;;;;;23.76;46.44;102052.47;5004355;28;20037;-85
2022/06/11 04:58:54;;;;;;;5.45;2.35;;;;;;;23.73;46.42;102047.50;5005208;28;20042;-85
2022/06/11 05:01:20;;;;;;;2.90;2.03;;;;;;;23.85;46.40;102065.72;4998928;28;20121;-86
2022/06/11 05:03:46;;;;;;;3.13;2.30;;;;;;;23.84;46.14;102062.22;4969905;28;20056;-84
2022/06/11 05:06:16;;;;;;;2.47;1.80;;;;;;;23.81;46.19;102058.09;5003370;28;20045;-84
2022/06/11 05:08:43;;;;;;;2.35;2.00;;;;;;;23.83;46.34;102060.56;4987628;28;20064;-84
2022/06/11 05:11:08;;;;;;;2.22;2.03;;;;;;;23.75;46.22;102047.34;5004146;28;20125;-85
2022/06/11 05:13:34;;;;;;;3.17;1.92;;;;;;;23.84;46.46;102056.06;4999450;28;20212;-86
2022/06/11 05:16:00;;;;;;;2.90;2.30;;;;;;;23.84;46.39;102058.72;5001402;28;20480;-85
2022/06/11 05:18:29;;;;;;;2.80;2.20;;;;;;;23.83;46.42;102059.75;4990285;28;20045;-86
2022/06/11 05:20:55;;;;;;;4.38;2.80;;;;;;;23.80;46.32;102056.44;4999257;28;20022;-86
2022/06/11 05:23:21;;;;;;;3.35;2.42;;;;;;;23.71;45.99;102038.06;5006259;28;20392;-86
2022/06/11 05:25:46;;;;;;;4.07;2.22;;;;;;;23.79;46.38;102056.59;5001069;28;20046;-85
2022/06/11 05:28:32;;;;;;;3.05;1.83;;;;;;;23.81;46.45;102063.41;5003899;28;20413;-85
2022/06/11 05:30:58;;;;;;;4.35;2.40;;;;;;;23.67;46.34;102036.72;5008756;28;20069;-85
2022/06/11 05:33:24;;;;;;;4.82;2.35;;;;;;;23.83;46.23;102063.22;4979313;28;20127;-85
2022/06/11 05:35:51;;;;;;;3.78;2.30;;;;;;;23.83;46.46;102071.22;5007863;28;20045;-85
2022/06/11 05:38:21;;;;;;;4.18;2.17;;;;;;;23.81;46.42;102074.03;5001556;28;20060;-85
2022/06/11 05:40:48;;;;;;;3.42;2.10;;;;;;;23.72;46.51;102053.00;5008315;28;20125;-85
2022/06/11 05:43:14;;;;;;;3.20;2.05;;;;;;;23.71;46.30;102059.34;4986362;28;20053;-85
2022/06/11 05:46:00;;;;;;;3.97;2.30;;;;;;;23.70;46.42;102060.34;4984880;28;20822;-85
2022/06/11 05:48:34;;;;;;;4.22;2.47;;;;;;;23.74;46.23;102061.63;4987939;28;20034;-86
2022/06/11 05:51:00;;;;;;;5.18;2.60;;;;;;;23.77;46.34;102069.25;4986459;28;20038;-85
2022/06/11 05:53:31;;;;;;;3.60;2.10;;;;;;;23.83;46.22;102078.34;4998913;28;20046;-85
2022/06/11 05:55:59;;;;;;;2.67;2.13;;;;;;;23.85;46.28;102085.16;5001787;28;20050;-85
2022/06/11 05:58:39;;;;;;;3.55;1.90;;;;;;;23.82;46.53;102077.53;5002635;28;20065;-86
2022/06/11 06:01:05;;;;;;;;;;;;;;;23.85;46.32;102085.16;4990059;28;20037;-85
2022/06/11 06:03:30;;;;;;;3.15;2.10;;;;;;;23.87;46.37;102082.31;4991155;28;20390;-85
2022/06/11 06:05:56;;;;;;;3.03;2.15;;;;;;;23.72;46.54;102061.00;4971384;28;20034;-83
2022/06/11 06:08:22;;;;;;;4.57;2.67;;;;;;;23.86;46.42;102080.66;4986615;28;20197;-85
2022/06/11 06:10:48;;;;;;;2.53;2.30;;;;;;;23.85;46.25;102084.31;4999921;28;20050;-85
2022/06/11 06:15:57;;;;;;;3.95;2.10;;;;;;;23.84;46.35;102085.34;4985573;28;20523;-86
2022/06/11 06:18:23;;;;;;;4.65;2.08;;;;;;;23.86;46.41;102094.78;4989315;28;20053;-89
2022/06/11 06:20:49;;;;;;;4.40;2.28;;;;;;;23.88;46.48;102097.28;4985333;28;20034;-86
2022/06/11 06:23:15;;;;;;;4.80;2.30;;;;;;;23.88;46.48;102095.47;4998367;28;20524;-86
2022/06/11 06:25:41;;;;;;;3.05;2.10;;;;;;;23.86;46.27;102100.09;4987198;28;20043;-85
2022/06/11 06:28:07;;;;;;;3.60;2.30;;;;;;;23.85;46.17;102097.63;4983559;28;20038;-85
2022/06/11 06:30:33;;;;;;;3.30;2.10;;;;;;;23.85;46.54;102097.63;4983058;28;20073;-85
2022/06/11 06:32:58;;;;;;;4.00;2.03;;;;;;;23.88;46.35;102113.22;4972054;28;20481;-84
2022/06/11 06:35:24;;;;;;;4.65;2.17;;;;;;;23.91;46.23;102104.94;4995771;28;20373;-85
2022/06/11 06:37:49;;;;;;;2.63;1.90;;;;;;;23.87;46.49;102107.09;4999708;28;20042;-84
2022/06/11 06:40:15;;;;;;;3.28;2.10;;;;;;;23.87;46.49;102104.44;4996808;28;20090;-84
2022/06/11 06:42:41;;;;;;;3.65;2.15;;;;;;;23.92;46.25;102112.72;4986417;28;20046;-84
2022/06/11 06:45:07;;;;;;;4.28;1.77;;;;;;;23.94;46.33;102112.56;5004277;28;20793;-85
2022/06/11 06:47:32;;;;;;;3.47;2.03;;;;;;;23.94;46.16;102113.38;5000810;28;20443;-85
2022/06/11 06:49:58;;;;;;;4.55;1.90;;;;;;;23.93;46.21;102119.69;4958697;28;20054;-84
2022/06/11 06:52:23;;;;;;;4.38;2.28;;;;;;;23.95;46.31;102122.19;4982984;28;20077;-85
2022/06/11 06:54:49;;;;;;;6.50;2.38;;;;;;;23.95;46.35;102117.69;4985791;28;20496;-85
2022/06/11 06:57:16;;;;;;;4.25;2.53;;;;;;;23.85;46.27;102098.47;5000551;28;20527;-85
2022/06/11 06:59:41;;;;;;;2.92;2.00;;;;;;;23.99;46.18;102110.19;5004190;28;20042;-85
2022/06/11 07:02:10;;;;;;;3.50;2.33;;;;;;;23.97;46.24;102107.69;5002913;28;20060;-85
2022/06/11 07:04:36;;;;;;;3.00;2.30;;;;;;;23.84;46.32;102090.66;4990084;28;20534;-88
2022/06/11 07:07:01;;;;;;;3.45;2.10;;;;;;;24.01;46.11;102122.31;5003884;28;20030;-89
2022/06/11 07:09:27;;;;;;;4.53;1.98;;;;;;;23.90;46.26;102101.44;4992213;28;20476;-88
2022/06/11 07:11:52;;;;;;;3.67;2.25;;;;;;;24.05;46.29;102123.59;4970996;28;20081;-88
2022/06/11 07:14:18;;;;;;;4.80;2.40;;;;;;;23.99;46.22;102107.53;4992882;28;20044;-87
2022/06/11 07:16:51;;;;;;;4.65;2.53;;;;;;;23.89;46.19;102088.31;4989045;28;20029;-90
2022/06/11 07:19:24;;;;;;;3.95;2.20;;;;;;;24.06;46.20;102117.31;4995045;28;20037;-85
2022/06/11 07:21:54;;;;;;;4.00;2.50;;;;;;;23.97;46.51;102106.88;5005381;28;20042;-87
2022/06/11 07:24:24;;;;;;;3.78;2.17;;;;;;;24.08;46.57;102131.25;5007631;28;20045;-89
2022/06/11 07:26:54;;;;;;;3.28;2.20;;;;;;;24.10;46.46;102131.06;5011655;28;20026;-90
2022/06/11 07:29:24;;;;;;;5.20;2.25;;;;;;;23.93;46.47;102102.91;5006945;28;20049;-85
2022/06/11 07:31:54;;;;;;;4.95;2.40;;;;;;;24.11;46.47;102128.22;5006740;28;20065;-88
2022/06/11 07:34:20;;;;;;;4.25;2.13;;;;;;;24.13;46.68;102136.03;4980042;28;20045;-84
2022/06/11 07:36:47;;;;;;;5.15;2.30;;;;;;;24.11;46.36;102130.91;5003431;28;20550;-85
2022/06/11 07:39:12;;;;;;;3.03;2.20;;;;;;;24.18;46.33;102140.81;5001080;28;20064;-84
2022/06/11 07:41:38;;;;;;;4.95;2.00;;;;;;;24.07;46.31;102112.81;4989405;28;20045;-84
2022/06/11 07:44:04;;;;;;;3.33;2.40;;;;;;;24.18;46.43;102136.31;4986908;28;20042;-85
2022/06/11 07:46:29;;;;;;;4.70;2.40;;;;;;;24.09;46.42;102132.91;5005807;28;20044;-86
2022/06/11 07:48:55;;;;;;;4.70;2.33;;;;;;;24.13;46.48;102133.38;4990897;28;20057;-84
2022/06/11 07:51:20;;;;;;;5.40;2.42;;;;;;;24.13;46.43;102137.88;4987636;28;20107;-84
2022/06/11 07:53:48;;;;;;;10.18;3.97;;;;;;;24.17;46.67;102150.63;5000022;28;20063;-84
2022/06/11 07:56:15;;;;;;;6.88;2.92;;;;;;;24.13;47.38;102153.84;5001881;28;20048;-85
2022/06/11 07:58:41;;;;;;;11.93;3.63;;;;;;;24.08;46.64;102147.22;5001409;28;20148;-85
2022/06/11 08:01:07;;;;;;;11.57;3.90;;;;;;;24.15;46.39;102165.97;4990242;28;20025;-84
2022/06/11 08:03:36;;;;;;;11.40;3.50;;;;;;;24.13;46.61;102149.34;4976715;28;20072;-84
2022/06/11 08:06:02;;;;;;;7.82;3.00;;;;;;;24.22;46.41;102168.72;5003956;28;20041;-85
2022/06/11 08:08:28;;;;;;;8.60;3.47;;;;;;;24.19;46.45;102171.75;5002086;28;20030;-86
2022/06/11 08:10:54;;;;;;;10.68;3.47;;;;;;;24.16;46.27;102172.09;5013017;28;20073;-86
2022/06/11 08:13:20;;;;;;;9.23;2.60;;;;;;;24.25;46.31;102176.38;4972287;28;20088;-88
2022/06/11 08:15:48;;;;;;;9.85;3.40;;;;;;;24.18;46.51;102162.13;4988481;28;20034;-86
2022/06/11 08:18:14;;;;;;;7.47;3.20;;;;;;;24.25;46.54;102169.22;5005438;28;20041;-85
2022/06/11 08:20:40;;;;;;;9.27;2.92;;;;;;;24.28;46.70;102173.38;4994143;28;20037;-85
2022/06/11 08:23:07;;;;;;;8.55;2.90;;;;;;;24.15;46.78;102157.97;4993979;28;20041;-85
2022/06/11 08:25:33;;;;;;;7.25;3.25;;;;;;;24.17;46.83;102155.97;4991526;28;20040;-85
2022/06/11 08:27:58;;;;;;;10.43;3.25;;;;;;;24.23;46.77;102171.22;5005748;28;20050;-86
2022/06/11 08:30:28;;;;;;;11.73;3.13;;;;;;;24.30;46.66;102171.38;5006324;28;20039;-85
2022/06/11 08:32:54;;;;;;;8.45;3.22;;;;;;;24.31;46.71;102178.38;5009381;28;20044;-85
2022/06/11 08:35:26;;;;;;;6.10;3.00;;;;;;;24.32;46.77;102178.19;4962068;28;20038;-85
2022/06/11 08:37:52;;;;;;;9.55;3.00;;;;;;;24.33;46.74;102179.00;5007019;28;20034;-85
2022/06/11 08:40:35;;;;;;;6.13;3.08;;;;;;;24.35;46.78;102180.50;4991433;28;20113;-85
2022/06/11 08:43:14;;;;;;;7.93;3.08;;;;;;;24.34;46.58;102176.16;4996109;28;20467;-86
2022/06/11 08:45:56;;;;;;;7.15;2.85;;;;;;;24.31;46.71;102178.38;5007701;28;20484;-84
2022/06/11 08:48:37;;;;;;;7.53;3.08;;;;;;;24.32;46.77;102175.53;5006158;28;20052;-85
2022/06/11 08:51:09;;;;;;;6.85;3.25;;;;;;;24.35;46.52;102180.50;4979192;28;20058;-85
2022/06/11 08:53:37;;;;;;;6.40;2.90;;;;;;;24.26;46.33;102159.41;5005559;28;20041;-85
2022/06/11 08:56:02;;;;;;;6.45;2.78;;;;;;;24.21;46.35;102157.25;5001772;28;20075;-85
2022/06/11 08:58:55;;;;;;;7.40;3.28;;;;;;;24.20;46.49;102158.25;4992554;28;20419;-85
2022/06/11 09:01:49;;;;;;;6.75;2.85;;;;;;;24.37;46.51;102182.97;5005095;28;20034;-85
2022/06/11 09:04:42;;;;;;;5.72;2.50;;;;;;;24.37;46.34;102183.81;5002359;28;20037;-85
2022/06/11 09:07:32;;;;;;;6.90;2.75;;;;;;;24.38;46.33;102179.31;5012479;28;20364;-86
2022/06/11 09:10:06;;;;;;;;;;;;;;;24.38;46.26;102189.94;5010621;28;20066;-85
2022/06/11 09:12:32;;;;;;;6.30;2.88;;;;;;;24.35;46.39;102192.97;5005399;28;20550;-86
2022/06/11 09:15:08;;;;;;;6.47;3.10;;;;;;;24.36;46.34;102187.47;5012878;28;20138;-85
2022/06/11 09:17:58;;;;;;;9.00;3.45;;;;;;;24.38;46.24;102188.13;5006977;28;20038;-85
2022/06/11 09:20:35;;;;;;;6.20;2.60;;;;;;;24.39;46.54;102188.94;4999282;28;20038;-86
2022/06/11 09:23:13;;;;;;;10.05;2.85;;;;;;;24.41;46.24;102187.75;5007858;28;20065;-82
2022/06/11 09:26:16;;;;;;;9.32;3.45;;;;;;;24.18;47.52;102189.56;5005299;28;20038;-91
2022/06/11 09:28:49;;;;;;;13.63;4.10;;;;;;;24.31;46.90;102191.69;5001709;28;20076;-87
2022/06/11 09:31:14;;;;;;;10.50;3.40;;;;;;;24.35;46.82;102188.47;4987901;28;20153;-88
2022/06/11 09:34:37;;;;;;;10.75;4.07;;;;;;;24.33;46.44;102187.00;5006016;28;20061;-87
2022/06/11 09:37:20;;;;;;;8.68;3.17;;;;;;;24.35;46.43;102177.81;4961464;28;20038;-89
2022/06/11 09:39:52;;;;;;;9.05;3.53;;;;;;;24.39;46.28;102189.78;5009923;28;20560;-88
2022/06/11 09:42:38;;;;;;;9.75;3.55;;;;;;;24.41;46.07;102194.91;5010995;28;20036;-88
2022/06/11 09:45:24;;;;;;;6.78;2.75;;;;;;;24.41;45.95;102195.75;4986910;28;20053;-88
2022/06/11 09:48:20;;;;;;;11.95;3.03;;;;;;;24.44;46.14;102201.75;5000082;28;20061;-88
2022/06/11 09:50:52;;;;;;;11.23;3.38;;;;;;;24.47;45.91;102204.88;4995029;28;20041;-87
2022/06/11 09:53:41;;;;;;;9.25;3.55;;;;;;;24.41;45.93;102193.09;5009366;28;20754;-87
2022/06/11 09:56:13;;;;;;;;;;;;;;;24.45;46.05;102204.22;5007031;28;20033;-87
2022/06/11 09:58:50;;;;;;;8.32;3.22;;;;;;;24.27;46.00;102180.53;5007387;28;20004;-86
2022/06/11 10:01:21;;;;;;;7.55;3.00;;;;;;;24.46;46.02;102205.88;5007665;28;20067;-87
2022/06/11 10:04:00;;;;;;;9.18;3.20;;;;;;;24.29;45.79;102175.88;5013431;28;20029;-87
2022/06/11 10:06:31;;;;;;;13.73;3.53;;;;;;;24.37;45.62;102188.31;4985268;28;20069;-87
2022/06/11 10:09:04;;;;;;;12.20;3.25;;;;;;;24.41;45.43;102206.41;5014280;28;20051;-87
2022/06/11 10:11:37;;;;;;;8.43;3.20;;;;;;;24.44;45.46;102207.91;5008388;28;20048;-87
2022/06/11 10:14:28;;;;;;;6.20;2.88;;;;;;;24.22;45.42;102174.06;5009040;28;20628;-86
2022/06/11 10:16:56;;;;;;;6.43;3.17;;;;;;;24.45;45.00;102214.06;5005797;28;20034;-87
2022/06/11 10:19:32;;;;;;;9.55;3.28;;;;;;;24.41;44.90;102211.72;5007515;28;20038;-87
2022/06/11 10:22:09;;;;;;;7.65;3.10;;;;;;;24.43;44.88;102222.22;4993990;28;20121;-87
2022/06/11 10:24:38;;;;;;;5.65;2.95;;;;;;;24.43;45.05;102213.41;5011298;28;20182;-86
2022/06/11 10:27:08;;;;;;;8.40;3.22;;;;;;;24.44;44.91;102207.91;5004195;28;20464;-87
2022/06/11 10:29:50;;;;;;;11.90;3.78;;;;;;;24.44;44.59;102218.56;5005796;28;20744;-87
2022/06/11 10:32:44;;;;;;;7.75;3.33;;;;;;;24.46;44.72;102221.03;4989698;28;20053;-86
2022/06/11 10:35:12;;;;;;;7.32;2.80;;;;;;;24.44;44.55;102217.72;5005069;28;20045;-86
2022/06/11 10:37:52;;;;;;;6.95;2.72;;;;;;;24.35;44.50;102201.78;4993683;28;20068;-86
2022/06/11 10:40:30;;;;;;;8.63;3.38;;;;;;;24.44;44.50;102223.06;4989884;28;20048;-88
2022/06/11 10:43:00;;;;;;;10.50;3.60;;;;;;;24.43;44.67;102227.56;4993781;28;20050;-87
2022/06/11 10:45:26;;;;;;;13.32;3.65;;;;;;;24.35;44.55;102214.28;5004031;28;20041;-87
2022/06/11 10:47:55;;;;;;;8.88;2.85;;;;;;;24.41;44.29;102222.38;4988043;28;20049;-87
2022/06/11 10:50:26;;;;;;;8.13;3.08;;;;;;;24.21;44.45;102197.19;5005801;28;20081;-87
2022/06/11 10:53:15;;;;;;;7.35;3.28;;;;;;;24.48;44.51;102230.50;4997404;28;20030;-87
2022/06/11 10:56:00;;;;;;;6.37;3.20;;;;;;;24.46;44.29;102235.19;5005434;28;20474;-87
2022/06/11 10:58:59;;;;;;;6.93;2.88;;;;;;;24.46;44.26;102240.50;5006201;28;20519;-87
2022/06/11 11:01:36;;;;;;;5.93;2.70;;;;;;;24.47;44.35;102230.69;4988909;28;20100;-88
2022/06/11 11:04:14;;;;;;;7.82;3.13;;;;;;;24.34;44.32;102220.59;5004856;28;20175;-88
2022/06/11 11:06:41;;;;;;;7.32;2.70;;;;;;;24.48;44.57;102235.00;4993474;28;20931;-87
2022/06/11 11:09:10;;;;;;;8.10;3.10;;;;;;;24.48;44.47;102246.47;4999215;28;20440;-88
2022/06/11 11:11:48;;;;;;;7.32;2.95;;;;;;;24.47;44.36;102236.84;5006247;28;20479;-87
2022/06/11 11:14:25;;;;;;;8.95;2.83;;;;;;;24.48;44.21;102240.31;5007008;28;20480;-87
2022/06/11 11:16:52;;;;;;;7.30;2.72;;;;;;;24.36;44.14;102231.91;5006303;28;20065;-87
2022/06/11 11:19:28;;;;;;;6.40;2.67;;;;;;;24.49;43.90;102245.47;5005846;28;20037;-88
2022/06/11 11:21:56;;;;;;;8.27;3.15;;;;;;;24.41;43.96;102238.34;5007363;28;20145;-87
2022/06/11 11:24:42;;;;;;;8.87;3.10;;;;;;;24.37;43.71;102220.25;4995422;28;20057;-88
2022/06/11 11:27:25;;;;;;;5.93;2.92;;;;;;;24.48;43.62;102240.31;5003443;28;20088;-88
2022/06/11 11:29:54;;;;;;;10.10;3.10;;;;;;;24.51;43.72;102239.97;5004443;28;20037;-88
2022/06/11 11:32:35;;;;;;;6.68;2.80;;;;;;;24.49;43.72;102247.31;5000050;28;20128;-89
2022/06/11 11:35:16;;;;;;;6.07;2.78;;;;;;;24.47;43.61;102238.66;5004347;28;20044;-88
2022/06/11 11:37:41;;;;;;;8.10;3.05;;;;;;;24.49;43.36;102253.47;4994832;28;20484;-87
2022/06/11 11:40:33;;;;;;;6.55;2.83;;;;;;;24.45;43.21;102249.50;5006910;28;20037;-90
2022/06/11 11:43:04;;;;;;;5.80;2.78;;;;;;;24.48;43.46;102248.31;5005361;28;20108;-90
2022/06/11 11:45:53;;;;;;;6.10;2.58;;;;;;;24.35;43.52;102232.91;5002495;28;20033;-88
2022/06/11 11:48:50;;;;;;;7.45;2.72;;;;;;;24.43;43.81;102243.53;5009628;28;20428;-90
2022/06/11 11:51:40;;;;;;;6.10;3.15;;;;;;;24.48;44.21;102243.00;4990034;28;20046;-89
2022/06/11 11:54:19;;;;;;;7.65;3.15;;;;;;;24.42;43.80;102231.22;4999183;28;20124;-89